Wylie, Texas
Current Conditions -  °F | °C
As of 4:35 PM on Wednesday 22 Oct 2014 (Local Time) from KF46 Reporting Station
Broken Clouds Broken Clouds  
Wind Chill: 26°   Ceiling: 5000
Heat Index: 26°   Visibility: 10mi
Dew Point: 14°   Wind: 6mph
Humidity: 48%   Direction: 110°ESE
Pressure: 30.07"   Gusts: NA
Location:  33.02°N, 96.51°W
Report Text: KF46 222135Z AUTO 11005KT 10SM BKN050 26/14 A3007 RMK AO2 T02590142
Loading
Personal Weather Stations






























Interactive Weather Map
Tropical Storm Tracking
New forecast layout! Learn more

10-Day Weather Forecast

Advertisements
Track Severe Weather on mobile